createdAt,value
2023-08-10T00:00:33.728Z,18.80
2023-08-10T00:03:04.972Z,18.80
2023-08-10T00:05:35.796Z,18.80
2023-08-10T00:08:06.362Z,18.80
2023-08-10T00:10:37.212Z,18.70
2023-08-10T00:13:10.434Z,18.70
2023-08-10T00:15:40.981Z,18.70
2023-08-10T00:18:11.625Z,18.60
2023-08-10T00:20:42.257Z,18.60
2023-08-10T00:23:12.731Z,18.60
2023-08-10T00:25:44.272Z,18.60
2023-08-10T00:28:17.578Z,18.50
2023-08-10T00:30:48.099Z,18.60
2023-08-10T00:33:31.799Z,18.50
2023-08-10T00:36:08.182Z,18.50
2023-08-10T00:38:39.643Z,18.50
2023-08-10T00:41:12.333Z,18.50
2023-08-10T00:43:45.464Z,18.50
2023-08-10T00:46:16.569Z,18.40
2023-08-10T00:48:47.197Z,18.40
2023-08-10T00:51:17.922Z,18.30
2023-08-10T00:53:49.246Z,18.40
2023-08-10T00:56:21.697Z,18.30
2023-08-10T00:58:56.295Z,18.30
2023-08-10T01:01:27.278Z,18.20
2023-08-10T01:03:57.975Z,18.20
2023-08-10T01:06:37.328Z,18.20
2023-08-10T01:09:15.590Z,18.20
2023-08-10T01:12:03.635Z,18.20
2023-08-10T01:14:44.626Z,18.20
2023-08-10T01:17:23.974Z,18.20
2023-08-10T01:19:56.726Z,18.20
2023-08-10T01:22:40.097Z,18.10
2023-08-10T01:25:17.054Z,18.10
2023-08-10T01:27:49.987Z,18.10
2023-08-10T01:30:20.982Z,18.00
2023-08-10T01:32:51.927Z,18.00
2023-08-10T01:35:22.622Z,17.90
2023-08-10T01:37:53.248Z,18.00
2023-08-10T01:40:27.281Z,17.90
2023-08-10T01:42:58.012Z,17.90
2023-08-10T01:45:28.857Z,17.90
2023-08-10T01:48:04.675Z,17.90
2023-08-10T01:50:41.055Z,17.90
2023-08-10T01:53:16.157Z,17.90
2023-08-10T01:55:49.932Z,17.80
2023-08-10T01:58:20.906Z,17.80
2023-08-10T02:00:52.664Z,17.80
2023-08-10T02:03:23.319Z,17.80
2023-08-10T02:05:56.995Z,17.80
2023-08-10T02:08:29.798Z,17.80
2023-08-10T02:11:03.084Z,17.70
2023-08-10T02:13:33.785Z,17.70
2023-08-10T02:16:05.085Z,17.70
2023-08-10T02:18:35.920Z,17.70
2023-08-10T02:21:07.805Z,17.60
2023-08-10T02:23:38.733Z,17.60
2023-08-10T02:26:11.967Z,17.60
2023-08-10T02:28:42.565Z,17.50
2023-08-10T02:31:13.212Z,17.50
2023-08-10T02:33:43.824Z,17.50
2023-08-10T02:36:14.401Z,17.50
2023-08-10T02:38:45.448Z,17.50
2023-08-10T02:41:18.662Z,17.50
2023-08-10T02:43:49.321Z,17.40
2023-08-10T02:46:19.875Z,17.40
2023-08-10T02:48:50.581Z,17.40
2023-08-10T02:51:22.282Z,17.40
2023-08-10T02:53:53.018Z,17.40
2023-08-10T02:56:26.256Z,17.40
2023-08-10T02:58:56.938Z,17.30
2023-08-10T03:01:27.656Z,17.20
2023-08-10T03:03:58.290Z,17.20
2023-08-10T03:06:29.668Z,17.20
2023-08-10T03:09:00.433Z,17.20
2023-08-10T03:11:33.596Z,17.20
2023-08-10T03:14:04.384Z,17.10
2023-08-10T03:16:36.357Z,17.10
2023-08-10T03:19:07.194Z,17.10
2023-08-10T03:21:37.832Z,17.10
2023-08-10T03:24:09.546Z,17.10
2023-08-10T03:26:42.799Z,17.10
2023-08-10T03:29:10.855Z,17.00
2023-08-10T03:31:42.186Z,17.00
2023-08-10T03:34:15.049Z,17.00
2023-08-10T03:36:45.585Z,17.00
2023-08-10T03:39:16.260Z,17.00
2023-08-10T03:41:50.203Z,16.90
2023-08-10T03:44:21.819Z,16.90
2023-08-10T03:46:54.952Z,16.90
2023-08-10T03:49:27.022Z,16.90
2023-08-10T03:51:57.753Z,16.80
2023-08-10T03:54:28.446Z,16.80
2023-08-10T03:57:01.677Z,16.80
2023-08-10T03:59:32.591Z,16.80
2023-08-10T04:02:03.612Z,16.80
2023-08-10T04:04:35.015Z,16.70
2023-08-10T04:07:08.983Z,16.70
2023-08-10T04:09:43.702Z,16.70
2023-08-10T04:12:16.945Z,16.60
2023-08-10T04:14:48.013Z,16.70
2023-08-10T04:17:21.589Z,16.60
2023-08-10T04:19:52.317Z,16.60
2023-08-10T04:22:23.064Z,16.60
2023-08-10T04:24:53.902Z,16.50
2023-08-10T04:27:29.537Z,16.50
2023-08-10T04:30:00.521Z,16.50
2023-08-10T04:32:31.092Z,16.50
2023-08-10T04:35:01.965Z,16.60
2023-08-10T04:37:32.610Z,16.60
2023-08-10T04:40:05.248Z,16.50
2023-08-10T04:42:39.588Z,16.60
2023-08-10T04:45:11.771Z,16.50
2023-08-10T04:47:42.772Z,16.50
2023-08-10T04:50:14.158Z,16.50
2023-08-10T04:52:45.724Z,16.60
2023-08-10T04:55:16.892Z,16.60
2023-08-10T04:57:50.037Z,16.50
2023-08-10T05:00:22.035Z,16.50
2023-08-10T05:02:52.627Z,16.50
2023-08-10T05:05:23.540Z,16.50
2023-08-10T05:07:54.313Z,16.50
2023-08-10T05:10:25.464Z,16.50
2023-08-10T05:12:58.562Z,16.50
2023-08-10T05:15:29.169Z,16.50
2023-08-10T05:17:59.969Z,16.50
2023-08-10T05:20:30.571Z,16.50
2023-08-10T05:23:01.077Z,16.50
2023-08-10T05:25:32.060Z,16.50
2023-08-10T05:28:05.139Z,16.50
2023-08-10T05:30:35.699Z,16.50
2023-08-10T05:33:06.406Z,16.50
2023-08-10T05:35:38.111Z,16.50
2023-08-10T05:38:09.564Z,16.50
2023-08-10T05:40:40.153Z,16.60
2023-08-10T05:43:15.519Z,16.60
2023-08-10T05:45:46.541Z,16.60
2023-08-10T05:48:17.503Z,16.60
2023-08-10T05:50:48.468Z,16.60
2023-08-10T05:53:19.112Z,16.70
2023-08-10T05:55:49.677Z,16.70
2023-08-10T05:58:22.814Z,16.70
2023-08-10T06:00:53.625Z,16.70
2023-08-10T06:03:24.385Z,16.80
2023-08-10T06:05:55.070Z,16.80
2023-08-10T06:08:25.600Z,16.90
2023-08-10T06:10:56.139Z,16.90
2023-08-10T06:13:29.381Z,16.90
2023-08-10T06:16:00.035Z,16.90
2023-08-10T06:18:30.692Z,17.00
2023-08-10T06:21:02.610Z,17.00
2023-08-10T06:23:33.167Z,17.00
2023-08-10T06:26:06.687Z,17.10
2023-08-10T06:28:40.051Z,17.10
2023-08-10T06:31:13.391Z,17.10
2023-08-10T06:33:43.989Z,17.20
2023-08-10T06:36:14.667Z,17.30
2023-08-10T06:38:45.269Z,17.30
2023-08-10T06:41:15.869Z,17.40
2023-08-10T06:43:49.114Z,17.40
2023-08-10T06:46:19.884Z,17.40
2023-08-10T06:48:51.002Z,17.40
2023-08-10T06:51:21.637Z,17.50
2023-08-10T06:53:52.154Z,17.50
2023-08-10T06:56:23.124Z,17.60
2023-08-10T07:01:29.769Z,17.70
2023-08-10T07:04:01.326Z,17.70
2023-08-10T07:06:32.920Z,17.80
2023-08-10T07:09:05.092Z,17.70
2023-08-10T07:11:36.021Z,17.80
2023-08-10T07:14:09.506Z,17.90
2023-08-10T07:16:40.426Z,17.90
2023-08-10T07:19:12.261Z,17.90
2023-08-10T07:21:42.971Z,18.00
2023-08-10T07:24:13.878Z,18.00
2023-08-10T07:26:44.665Z,18.10
2023-08-10T07:29:18.640Z,18.20
2023-08-10T07:31:49.509Z,18.20
2023-08-10T07:34:20.172Z,18.30
2023-08-10T07:36:50.893Z,18.30
2023-08-10T07:39:21.378Z,18.30
2023-08-10T07:41:52.013Z,18.40
2023-08-10T07:44:25.298Z,18.40
2023-08-10T07:46:56.072Z,18.50
2023-08-10T07:49:26.807Z,18.60
2023-08-10T07:51:57.465Z,18.60
2023-08-10T07:54:28.392Z,18.70
2023-08-10T07:56:59.183Z,18.70
2023-08-10T07:59:32.447Z,18.70
2023-08-10T08:02:03.587Z,18.80
2023-08-10T08:04:34.501Z,18.80
2023-08-10T08:07:05.175Z,18.90
2023-08-10T08:09:35.797Z,18.90
2023-08-10T08:12:06.766Z,19.00
2023-08-10T08:14:40.389Z,19.00
2023-08-10T08:17:11.054Z,19.10
2023-08-10T08:19:41.929Z,19.10
2023-08-10T08:22:12.556Z,19.20
2023-08-10T08:24:44.770Z,19.20
2023-08-10T08:27:15.587Z,19.20
2023-08-10T08:29:48.756Z,19.30
2023-08-10T08:32:37.044Z,19.30
2023-08-10T08:35:10.583Z,19.40
2023-08-10T08:37:41.204Z,19.50
2023-08-10T08:40:12.876Z,19.50
2023-08-10T08:42:45.759Z,19.50
2023-08-10T08:45:19.310Z,19.60
2023-08-10T08:47:53.245Z,19.60
2023-08-10T08:50:24.147Z,19.70
2023-08-10T08:52:55.276Z,19.80
2023-08-10T08:55:25.942Z,19.80
2023-08-10T08:57:56.736Z,19.90
2023-08-10T09:00:30.123Z,19.90
2023-08-10T09:03:00.973Z,20.00
2023-08-10T09:05:33.018Z,20.10
2023-08-10T09:08:03.795Z,20.20
2023-08-10T09:10:34.665Z,20.20
2023-08-10T09:13:14.998Z,20.20
2023-08-10T09:15:48.450Z,20.30
2023-08-10T09:18:19.229Z,20.40
2023-08-10T09:20:51.713Z,20.30
2023-08-10T09:23:23.256Z,20.40
2023-08-10T09:25:53.946Z,20.60
2023-08-10T09:28:24.650Z,20.50
2023-08-10T09:31:00.778Z,20.60
2023-08-10T09:33:36.800Z,20.70
2023-08-10T09:36:08.983Z,20.70
2023-08-10T09:38:39.867Z,20.80
2023-08-10T09:41:15.173Z,20.90
2023-08-10T09:43:48.206Z,21.00
2023-08-10T09:46:21.458Z,21.00
2023-08-10T09:48:53.905Z,21.00
2023-08-10T09:51:24.623Z,21.10
2023-08-10T09:53:55.449Z,21.10
2023-08-10T09:56:26.333Z,21.20
2023-08-10T09:58:57.171Z,21.30
2023-08-10T10:01:30.565Z,21.40
2023-08-10T10:04:01.367Z,21.40
2023-08-10T10:06:32.369Z,21.50
2023-08-10T10:09:05.636Z,21.60
2023-08-10T10:11:36.904Z,21.70
2023-08-10T10:14:08.132Z,21.80
2023-08-10T10:16:41.625Z,21.80
2023-08-10T10:19:14.216Z,21.80
2023-08-10T10:21:45.318Z,21.90
2023-08-10T10:24:19.133Z,21.80
2023-08-10T10:27:02.696Z,22.00
2023-08-10T10:29:43.674Z,22.10
2023-08-10T10:32:21.096Z,22.20
2023-08-10T10:34:54.659Z,22.30
2023-08-10T10:37:32.040Z,22.40
2023-08-10T10:40:20.374Z,22.40
2023-08-10T10:43:05.807Z,22.40
2023-08-10T10:45:39.579Z,22.50
2023-08-10T10:48:14.512Z,22.60
2023-08-10T10:50:45.512Z,22.60
2023-08-10T10:53:19.783Z,22.70
2023-08-10T10:55:51.790Z,22.80
2023-08-10T10:58:22.432Z,22.90
2023-08-10T11:00:54.575Z,22.90
2023-08-10T11:03:32.454Z,23.00
2023-08-10T11:06:06.124Z,23.10
2023-08-10T11:08:36.895Z,23.20
2023-08-10T11:11:08.074Z,23.20
2023-08-10T11:13:38.875Z,23.30
2023-08-10T11:16:10.603Z,23.40
2023-08-10T11:18:47.295Z,23.40
2023-08-10T11:21:18.103Z,23.50
2023-08-10T11:23:48.701Z,23.60
2023-08-10T11:26:23.716Z,23.60
2023-08-10T11:28:55.252Z,23.70
2023-08-10T11:31:26.610Z,23.70
2023-08-10T11:33:59.886Z,23.70
2023-08-10T11:36:30.468Z,23.80
2023-08-10T11:39:01.052Z,23.90
2023-08-10T11:41:43.899Z,24.00
2023-08-10T11:44:14.479Z,24.10
2023-08-10T11:46:47.708Z,24.00
2023-08-10T11:49:21.082Z,24.00
2023-08-10T11:51:52.250Z,24.00
2023-08-10T11:54:30.420Z,24.10
2023-08-10T11:57:01.451Z,24.20
2023-08-10T11:59:39.060Z,24.30
2023-08-10T12:02:16.733Z,24.30
2023-08-10T12:04:51.470Z,24.40
2023-08-10T12:07:26.151Z,24.50
2023-08-10T12:09:56.901Z,24.60
2023-08-10T12:12:28.576Z,24.70
2023-08-10T12:14:59.945Z,24.70
2023-08-10T12:17:30.631Z,24.70
2023-08-10T12:20:04.825Z,24.70
2023-08-10T12:22:43.588Z,24.80
2023-08-10T12:25:14.201Z,24.90
2023-08-10T12:27:44.785Z,24.90
2023-08-10T12:30:15.874Z,25.00
2023-08-10T12:32:46.730Z,25.10
2023-08-10T12:35:20.067Z,25.20
2023-08-10T12:37:51.348Z,25.30
2023-08-10T12:40:21.963Z,25.20
2023-08-10T12:42:52.993Z,25.40
2023-08-10T12:45:24.302Z,25.60
2023-08-10T12:47:56.034Z,25.60
2023-08-10T12:50:29.736Z,25.70
2023-08-10T12:53:00.816Z,25.60
2023-08-10T12:55:32.542Z,25.70
2023-08-10T12:58:03.334Z,25.70
2023-08-10T13:00:34.061Z,25.70
2023-08-10T13:03:04.869Z,25.80
2023-08-10T13:05:38.133Z,25.90
2023-08-10T13:08:09.309Z,26.10
2023-08-10T13:10:40.340Z,26.10
2023-08-10T13:13:11.036Z,26.20
2023-08-10T13:15:41.696Z,26.30
2023-08-10T13:18:12.453Z,26.20
2023-08-10T13:20:45.780Z,26.20
2023-08-10T13:23:16.390Z,26.20
2023-08-10T13:25:47.009Z,26.40
2023-08-10T13:28:17.739Z,26.40
2023-08-10T13:30:48.241Z,26.30
2023-08-10T13:33:18.945Z,26.40
2023-08-10T13:35:52.306Z,26.60
2023-08-10T13:38:22.911Z,26.80
2023-08-10T13:40:53.683Z,26.80
2023-08-10T13:43:24.234Z,26.90
2023-08-10T13:45:55.442Z,26.90
2023-08-10T13:48:28.546Z,26.90
2023-08-10T13:51:01.665Z,27.00
2023-08-10T13:53:32.242Z,26.90
2023-08-10T13:56:02.862Z,27.10
2023-08-10T13:58:33.571Z,27.20
2023-08-10T14:01:07.667Z,27.20
2023-08-10T14:03:38.496Z,27.20
2023-08-10T14:06:12.672Z,27.30
2023-08-10T14:08:43.647Z,27.40
2023-08-10T14:11:14.377Z,27.20
2023-08-10T14:13:45.010Z,27.40
2023-08-10T14:16:17.339Z,27.60
2023-08-10T14:18:48.079Z,27.60
2023-08-10T14:21:23.140Z,27.50
2023-08-10T14:23:55.054Z,27.40
2023-08-10T14:26:25.819Z,27.60
2023-08-10T14:28:56.480Z,27.60
2023-08-10T14:31:27.742Z,27.60
2023-08-10T14:33:58.560Z,27.70
2023-08-10T14:36:31.724Z,27.70
2023-08-10T14:39:02.373Z,27.60
2023-08-10T14:41:33.075Z,27.80
2023-08-10T14:44:03.752Z,27.90
2023-08-10T14:46:34.305Z,27.90
2023-08-10T14:49:06.481Z,27.80
2023-08-10T14:51:39.706Z,27.90
2023-08-10T14:54:11.094Z,28.10
2023-08-10T14:56:41.778Z,28.10
2023-08-10T14:59:12.396Z,28.00
2023-08-10T15:01:45.275Z,28.10
2023-08-10T15:04:16.721Z,28.10
2023-08-10T15:06:51.531Z,28.40
2023-08-10T15:09:23.108Z,28.50
2023-08-10T15:11:53.691Z,28.40
2023-08-10T15:14:24.351Z,28.30
2023-08-10T15:16:54.919Z,28.50
2023-08-10T15:19:25.733Z,28.40
2023-08-10T15:21:58.900Z,28.70
2023-08-10T15:24:29.518Z,28.50
2023-08-10T15:27:01.514Z,28.50
2023-08-10T15:29:32.151Z,28.50
2023-08-10T15:32:04.734Z,28.50
2023-08-10T15:34:35.895Z,28.50
2023-08-10T15:37:08.984Z,28.60
2023-08-10T15:39:39.591Z,28.60
2023-08-10T15:42:10.216Z,28.60
2023-08-10T15:44:41.352Z,28.90
2023-08-10T15:47:12.105Z,29.00
2023-08-10T15:49:42.761Z,29.10
2023-08-10T15:52:15.847Z,29.00
2023-08-10T15:54:46.610Z,29.10
2023-08-10T15:57:17.234Z,29.30
2023-08-10T15:59:47.841Z,29.40
2023-08-10T16:02:21.168Z,29.30
2023-08-10T16:04:52.247Z,29.20
2023-08-10T16:07:25.444Z,29.10
2023-08-10T16:09:56.203Z,29.30
2023-08-10T16:12:26.760Z,29.50
2023-08-10T16:14:57.481Z,29.40
2023-08-10T16:17:28.098Z,29.40
2023-08-10T16:19:58.795Z,29.30
2023-08-10T16:22:32.054Z,29.30
2023-08-10T16:25:02.926Z,29.40
2023-08-10T16:27:33.747Z,29.40
2023-08-10T16:30:04.536Z,29.40
2023-08-10T16:32:35.378Z,29.40
2023-08-10T16:35:06.158Z,29.60
2023-08-10T16:37:39.365Z,29.50
2023-08-10T16:40:12.085Z,29.60
2023-08-10T16:42:43.446Z,29.80
2023-08-10T16:45:14.443Z,29.80
2023-08-10T16:47:45.119Z,29.80
2023-08-10T16:50:16.009Z,30.00
2023-08-10T16:52:49.213Z,30.10
2023-08-10T16:55:19.979Z,30.00
2023-08-10T16:57:52.328Z,30.00
2023-08-10T17:00:25.614Z,30.00
2023-08-10T17:02:56.233Z,29.90
2023-08-10T17:05:27.079Z,30.20
2023-08-10T17:08:00.282Z,30.10
2023-08-10T17:10:30.974Z,30.30
2023-08-10T17:13:01.709Z,30.40
2023-08-10T17:15:32.328Z,30.30
2023-08-10T17:18:03.067Z,30.30
2023-08-10T17:20:33.774Z,30.50
2023-08-10T17:23:07.160Z,30.50
2023-08-10T17:25:38.304Z,30.30
2023-08-10T17:28:11.114Z,30.30
2023-08-10T17:30:41.811Z,30.50
2023-08-10T17:33:12.424Z,30.60
2023-08-10T17:35:43.081Z,30.30
2023-08-10T17:38:16.402Z,30.00
2023-08-10T17:40:47.208Z,30.10
2023-08-10T17:43:18.172Z,30.00
2023-08-10T17:45:48.811Z,30.10
2023-08-10T17:48:19.388Z,29.90
2023-08-10T17:50:50.313Z,29.90
2023-08-10T17:53:23.547Z,29.70
2023-08-10T17:55:54.209Z,29.60
2023-08-10T17:58:25.191Z,29.60
2023-08-10T18:00:55.864Z,29.50
2023-08-10T18:03:26.516Z,29.40
2023-08-10T18:05:57.178Z,29.40
2023-08-10T18:08:30.371Z,29.30
2023-08-10T18:11:01.175Z,29.20
2023-08-10T18:13:31.785Z,29.10
2023-08-10T18:16:02.779Z,29.30
2023-08-10T18:18:33.635Z,29.40
2023-08-10T18:21:07.065Z,30.00
2023-08-10T18:23:41.763Z,30.20
2023-08-10T18:26:12.661Z,29.70
2023-08-10T18:28:43.409Z,29.50
2023-08-10T18:31:14.331Z,29.40
2023-08-10T18:33:44.913Z,29.40
2023-08-10T18:36:16.369Z,29.40
2023-08-10T18:38:49.505Z,29.10
2023-08-10T18:41:20.105Z,28.90
2023-08-10T18:43:51.276Z,28.80
2023-08-10T18:46:21.987Z,28.70
2023-08-10T18:48:52.562Z,28.60
2023-08-10T18:51:23.156Z,28.50
2023-08-10T18:53:56.457Z,28.40
2023-08-10T18:56:27.229Z,28.30
2023-08-10T18:58:58.185Z,28.20
2023-08-10T19:01:28.770Z,28.10
2023-08-10T19:03:59.465Z,28.00
2023-08-10T19:06:30.288Z,27.90
2023-08-10T19:09:03.504Z,27.80
2023-08-10T19:11:34.068Z,27.70
2023-08-10T19:14:04.539Z,27.60
2023-08-10T19:16:35.197Z,27.50
2023-08-10T19:19:06.012Z,27.40
2023-08-10T19:21:36.766Z,27.40
2023-08-10T19:24:11.092Z,27.30
2023-08-10T19:26:42.002Z,27.20
2023-08-10T19:29:12.760Z,27.20
2023-08-10T19:31:43.318Z,27.10
2023-08-10T19:34:13.893Z,27.00
2023-08-10T19:36:45.646Z,26.90
2023-08-10T19:39:18.810Z,26.90
2023-08-10T19:41:49.679Z,26.90
2023-08-10T19:44:20.176Z,26.80
2023-08-10T19:46:50.780Z,26.70
2023-08-10T19:49:21.295Z,26.60
2023-08-10T19:51:51.920Z,26.60
2023-08-10T19:54:25.111Z,26.50
2023-08-10T19:56:55.754Z,26.50
2023-08-10T19:59:26.430Z,26.40
2023-08-10T20:01:57.020Z,26.30
2023-08-10T20:04:27.605Z,26.30
2023-08-10T20:06:58.298Z,26.20
2023-08-10T20:09:31.531Z,26.20
2023-08-10T20:12:05.650Z,26.20
2023-08-10T20:14:36.535Z,26.20
2023-08-10T20:17:07.551Z,26.10
2023-08-10T20:19:38.540Z,26.10
2023-08-10T20:22:09.477Z,26.00
2023-08-10T20:24:42.899Z,26.00
2023-08-10T20:27:14.719Z,25.90
2023-08-10T20:29:45.410Z,25.90
2023-08-10T20:32:17.578Z,25.80
2023-08-10T20:34:48.132Z,25.80
2023-08-10T20:37:19.722Z,25.70
2023-08-10T20:39:53.132Z,25.60
2023-08-10T20:42:23.678Z,25.60
2023-08-10T20:44:54.311Z,25.40
2023-08-10T20:47:25.002Z,25.40
2023-08-10T20:49:56.850Z,25.40
2023-08-10T20:52:27.607Z,25.30
2023-08-10T20:55:01.000Z,25.30
2023-08-10T20:57:32.202Z,25.20
2023-08-10T21:00:04.820Z,25.20
2023-08-10T21:02:35.598Z,25.10
2023-08-10T21:05:07.929Z,25.00
2023-08-10T21:07:38.876Z,25.00
2023-08-10T21:10:14.609Z,24.90
2023-08-10T21:12:45.372Z,24.90
2023-08-10T21:15:15.975Z,24.90
2023-08-10T21:17:46.615Z,24.90
2023-08-10T21:20:18.194Z,24.80
2023-08-10T21:22:48.661Z,24.80
2023-08-10T21:25:21.998Z,24.80
2023-08-10T21:27:52.673Z,24.80
2023-08-10T21:30:23.236Z,24.70
2023-08-10T21:32:53.988Z,24.70
2023-08-10T21:35:24.873Z,24.60
2023-08-10T21:37:55.630Z,24.60
2023-08-10T21:40:29.363Z,24.60
2023-08-10T21:43:00.221Z,24.60
2023-08-10T21:45:30.909Z,24.50
2023-08-10T21:48:01.702Z,24.50
2023-08-10T21:50:32.867Z,24.50
2023-08-10T21:53:03.672Z,24.50
2023-08-10T21:55:36.897Z,24.40
2023-08-10T21:58:07.869Z,24.40
2023-08-10T22:00:38.426Z,24.30
2023-08-10T22:03:09.625Z,24.30
2023-08-10T22:05:40.436Z,24.30
2023-08-10T22:08:11.333Z,24.30
2023-08-10T22:10:44.676Z,24.10
2023-08-10T22:13:15.419Z,24.10
2023-08-10T22:15:46.035Z,24.00
2023-08-10T22:18:16.631Z,24.10
2023-08-10T22:20:47.495Z,24.00
2023-08-10T22:23:18.207Z,24.00
2023-08-10T22:25:51.502Z,24.00
2023-08-10T22:28:22.500Z,24.00
2023-08-10T22:30:53.314Z,23.90
2023-08-10T22:33:24.026Z,23.90
2023-08-10T22:35:54.769Z,23.90
2023-08-10T22:38:26.791Z,23.80
2023-08-10T22:41:01.409Z,23.80
2023-08-10T22:43:29.591Z,23.70
2023-08-10T22:46:00.456Z,23.70
2023-08-10T22:48:31.069Z,23.70
2023-08-10T22:51:01.931Z,23.60
2023-08-10T22:53:32.826Z,23.60
2023-08-10T22:56:06.250Z,23.60
2023-08-10T22:58:36.915Z,23.50
2023-08-10T23:01:07.617Z,23.50
2023-08-10T23:03:38.299Z,23.50
2023-08-10T23:06:08.928Z,23.40
2023-08-10T23:08:39.776Z,23.40
2023-08-10T23:11:12.978Z,23.40
2023-08-10T23:13:43.659Z,23.40
2023-08-10T23:16:15.275Z,23.40
2023-08-10T23:18:46.004Z,23.40
2023-08-10T23:21:16.704Z,23.30
2023-08-10T23:23:47.414Z,23.30
2023-08-10T23:26:20.676Z,23.20
2023-08-10T23:28:51.388Z,23.20
2023-08-10T23:31:22.122Z,23.20
2023-08-10T23:33:52.876Z,23.10
2023-08-10T23:36:23.528Z,23.10
2023-08-10T23:38:54.695Z,23.10
2023-08-10T23:41:27.999Z,23.00
2023-08-10T23:43:58.565Z,23.10
2023-08-10T23:46:29.243Z,23.00
2023-08-10T23:48:59.936Z,23.00
2023-08-10T23:51:32.063Z,22.90
2023-08-10T23:54:02.800Z,22.90
2023-08-10T23:56:36.288Z,22.90
2023-08-10T23:59:08.631Z,22.90
